Bergoo, West Virginia
Current Conditions -  °F | °C
As of 7:15 AM on Sunday 25 Jan 2015 (Local Time) from KW22 Reporting Station
Haze Haze  
Wind Chill: -4°   Ceiling: 3300
Heat Index:   Visibility: 6mi
Dew Point:   Wind: 7mph
Humidity: 100%   Direction: 200°SSW
Pressure: 29.78"   Gusts: NA
Location:  38.49°N, 80.3°W
Report Text: KW22 251215Z AUTO 20006KT 6SM BR BKN033 M00/M00 A2978 RMK AO2
Loading
Personal Weather Stations






























Interactive Weather Map New forecast layout! Learn more

10-Day Weather Forecast

Advertisements
Track Severe Weather on mobile